sensor_id;sensor_type;location;lat;lon;timestamp;pressure;altitude;pressure_sealevel;temperature;humidity
36630;BME280;36256;42.154;23.002;2024-01-11T00:00:49;98264.19;;;-3.30;94.87
36630;BME280;36256;42.154;23.002;2024-01-11T00:03:16;98260.50;;;-3.34;94.12
36630;BME280;36256;42.154;23.002;2024-01-11T00:05:42;98268.88;;;-3.30;94.70
36630;BME280;36256;42.154;23.002;2024-01-11T00:08:10;98260.75;;;-3.27;97.49
36630;BME280;36256;42.154;23.002;2024-01-11T00:10:37;98265.56;;;-3.24;100.00
36630;BME280;36256;42.154;23.002;2024-01-11T00:13:03;98265.09;;;-3.13;100.00
36630;BME280;36256;42.154;23.002;2024-01-11T00:15:30;98262.56;;;-3.19;100.00
36630;BME280;36256;42.154;23.002;2024-01-11T00:17:57;98266.25;;;-3.14;100.00
36630;BME280;36256;42.154;23.002;2024-01-11T00:20:27;98256.97;;;-3.22;99.39
36630;BME280;36256;42.154;23.002;2024-01-11T00:22:53;98255.50;;;-3.20;97.79
36630;BME280;36256;42.154;23.002;2024-01-11T00:25:23;98251.59;;;-3.19;96.87
36630;BME280;36256;42.154;23.002;2024-01-11T00:27:50;98256.88;;;-3.26;97.25
36630;BME280;36256;42.154;23.002;2024-01-11T00:30:16;98258.44;;;-3.25;97.79
36630;BME280;36256;42.154;23.002;2024-01-11T00:32:43;98258.91;;;-3.23;98.98
36630;BME280;36256;42.154;23.002;2024-01-11T00:35:10;98262.91;;;-3.32;99.18
36630;BME280;36256;42.154;23.002;2024-01-11T00:37:37;98257.06;;;-3.43;98.74
36630;BME280;36256;42.154;23.002;2024-01-11T00:40:04;98259.34;;;-3.45;98.50
36630;BME280;36256;42.154;23.002;2024-01-11T00:42:31;98253.41;;;-3.47;97.80
36630;BME280;36256;42.154;23.002;2024-01-11T00:44:58;98259.34;;;-3.45;97.29
36630;BME280;36256;42.154;23.002;2024-01-11T00:47:24;98261.38;;;-3.42;99.05
36630;BME280;36256;42.154;23.002;2024-01-11T00:49:52;98262.09;;;-3.45;98.62
36630;BME280;36256;42.154;23.002;2024-01-11T00:52:18;98259.56;;;-3.38;98.35
36630;BME280;36256;42.154;23.002;2024-01-11T00:54:45;98264.94;;;-3.41;98.28
36630;BME280;36256;42.154;23.002;2024-01-11T00:57:12;98255.44;;;-3.44;97.56
36630;BME280;36256;42.154;23.002;2024-01-11T00:59:40;98252.94;;;-3.49;97.64
36630;BME280;36256;42.154;23.002;2024-01-11T01:02:07;98234.38;;;-3.64;98.17
36630;BME280;36256;42.154;23.002;2024-01-11T01:04:37;98258.38;;;-3.61;99.23
36630;BME280;36256;42.154;23.002;2024-01-11T01:07:05;98247.66;;;-3.54;97.67
36630;BME280;36256;42.154;23.002;2024-01-11T01:09:32;98255.22;;;-3.51;97.58
36630;BME280;36256;42.154;23.002;2024-01-11T01:11:59;98250.41;;;-3.54;97.28
36630;BME280;36256;42.154;23.002;2024-01-11T01:14:25;98248.22;;;-3.48;96.44
36630;BME280;36256;42.154;23.002;2024-01-11T01:16:52;98245.16;;;-3.47;95.07
36630;BME280;36256;42.154;23.002;2024-01-11T01:19:19;98239.88;;;-3.52;94.11
36630;BME280;36256;42.154;23.002;2024-01-11T01:21:45;98244.25;;;-3.51;94.86
36630;BME280;36256;42.154;23.002;2024-01-11T01:24:12;98249.38;;;-3.49;96.57
36630;BME280;36256;42.154;23.002;2024-01-11T01:26:39;98244.91;;;-3.54;97.11
36630;BME280;36256;42.154;23.002;2024-01-11T01:29:06;98232.53;;;-3.72;96.86
36630;BME280;36256;42.154;23.002;2024-01-11T01:31:32;98241.88;;;-3.73;96.62
36630;BME280;36256;42.154;23.002;2024-01-11T01:34:04;98235.59;;;-3.73;95.91
36630;BME280;36256;42.154;23.002;2024-01-11T01:36:31;98232.53;;;-3.72;96.89
36630;BME280;36256;42.154;23.002;2024-01-11T01:38:58;98239.34;;;-3.78;95.45
36630;BME280;36256;42.154;23.002;2024-01-11T01:41:24;98228.94;;;-3.84;93.91
36630;BME280;36256;42.154;23.002;2024-01-11T01:43:51;98232.94;;;-3.82;93.25
36630;BME280;36256;42.154;23.002;2024-01-11T01:46:23;98235.00;;;-3.79;94.49
36630;BME280;36256;42.154;23.002;2024-01-11T01:48:51;98235.81;;;-3.78;95.11
36630;BME280;36256;42.154;23.002;2024-01-11T01:51:21;98212.34;;;-3.88;96.25
36630;BME280;36256;42.154;23.002;2024-01-11T01:53:50;98234.31;;;-3.76;94.99
36630;BME280;36256;42.154;23.002;2024-01-11T01:56:19;98230.00;;;-3.77;94.43
36630;BME280;36256;42.154;23.002;2024-01-11T01:58:47;98227.34;;;-3.85;94.08
36630;BME280;36256;42.154;23.002;2024-01-11T02:01:15;98206.63;;;-3.95;93.42
36630;BME280;36256;42.154;23.002;2024-01-11T02:03:43;98209.84;;;-3.93;92.99
36630;BME280;36256;42.154;23.002;2024-01-11T02:06:10;98225.88;;;-3.83;93.19
36630;BME280;36256;42.154;23.002;2024-01-11T02:08:38;98217.19;;;-3.85;92.37
36630;BME280;36256;42.154;23.002;2024-01-11T02:11:07;98183.06;;;-4.08;93.28
36630;BME280;36256;42.154;23.002;2024-01-11T02:13:33;98214.28;;;-3.88;93.66
36630;BME280;36256;42.154;23.002;2024-01-11T02:16:00;98218.28;;;-3.86;96.15
36630;BME280;36256;42.154;23.002;2024-01-11T02:18:27;98203.28;;;-4.01;100.00
36630;BME280;36256;42.154;23.002;2024-01-11T02:20:55;98210.50;;;-3.96;99.22
36630;BME280;36256;42.154;23.002;2024-01-11T02:23:24;98201.81;;;-3.98;97.71
36630;BME280;36256;42.154;23.002;2024-01-11T02:25:51;98208.41;;;-3.99;97.98
36630;BME280;36256;42.154;23.002;2024-01-11T02:28:18;98204.44;;;-4.02;99.09
36630;BME280;36256;42.154;23.002;2024-01-11T02:30:44;98200.63;;;-4.09;98.84
36630;BME280;36256;42.154;23.002;2024-01-11T02:33:11;98208.16;;;-4.18;98.14
36630;BME280;36256;42.154;23.002;2024-01-11T02:35:42;98202.41;;;-4.25;98.58
36630;BME280;36256;42.154;23.002;2024-01-11T02:38:13;98202.50;;;-4.22;98.14
36630;BME280;36256;42.154;23.002;2024-01-11T02:40:41;98203.97;;;-4.24;96.84
36630;BME280;36256;42.154;23.002;2024-01-11T02:43:11;98200.78;;;-4.26;96.82
36630;BME280;36256;42.154;23.002;2024-01-11T02:45:38;98188.88;;;-4.30;96.99
36630;BME280;36256;42.154;23.002;2024-01-11T02:48:04;98197.84;;;-4.21;97.33
36630;BME280;36256;42.154;23.002;2024-01-11T02:50:32;98205.59;;;-4.23;98.97
36630;BME280;36256;42.154;23.002;2024-01-11T02:52:59;98200.13;;;-4.23;99.74
36630;BME280;36256;42.154;23.002;2024-01-11T02:55:26;98188.22;;;-4.27;99.76
36630;BME280;36256;42.154;23.002;2024-01-11T02:57:52;98198.72;;;-4.29;99.80
36630;BME280;36256;42.154;23.002;2024-01-11T03:00:19;98192.56;;;-4.26;98.85
36630;BME280;36256;42.154;23.002;2024-01-11T03:02:46;98190.97;;;-4.27;97.65
36630;BME280;36256;42.154;23.002;2024-01-11T03:05:13;98199.19;;;-4.27;97.39
36630;BME280;36256;42.154;23.002;2024-01-11T03:07:39;98194.63;;;-4.23;97.56
36630;BME280;36256;42.154;23.002;2024-01-11T03:10:06;98161.72;;;-4.35;97.34
36630;BME280;36256;42.154;23.002;2024-01-11T03:12:33;98197.66;;;-4.16;97.52
36630;BME280;36256;42.154;23.002;2024-01-11T03:15:00;98189.44;;;-4.16;97.95
36630;BME280;36256;42.154;23.002;2024-01-11T03:17:26;98191.69;;;-4.18;98.41
36630;BME280;36256;42.154;23.002;2024-01-11T03:19:53;98183.25;;;-4.13;97.98
36630;BME280;36256;42.154;23.002;2024-01-11T03:22:20;98194.56;;;-4.15;96.60
36630;BME280;36256;42.154;23.002;2024-01-11T03:24:47;98190.09;;;-4.19;97.62
36630;BME280;36256;42.154;23.002;2024-01-11T03:27:13;98189.16;;;-4.23;96.39
36630;BME280;36256;42.154;23.002;2024-01-11T03:29:40;98174.31;;;-4.22;95.42
36630;BME280;36256;42.154;23.002;2024-01-11T03:32:09;98182.88;;;-4.24;94.21
36630;BME280;36256;42.154;23.002;2024-01-11T03:34:39;98180.19;;;-4.32;93.81
36630;BME280;36256;42.154;23.002;2024-01-11T03:37:06;98177.28;;;-4.27;95.64
36630;BME280;36256;42.154;23.002;2024-01-11T03:39:34;98149.34;;;-4.41;94.35
36630;BME280;36256;42.154;23.002;2024-01-11T03:42:00;98165.22;;;-4.35;93.94
36630;BME280;36256;42.154;23.002;2024-01-11T03:44:27;98174.06;;;-4.29;94.83
36630;BME280;36256;42.154;23.002;2024-01-11T03:46:54;98168.59;;;-4.29;95.31
36630;BME280;36256;42.154;23.002;2024-01-11T03:49:26;98167.78;;;-4.30;96.02
36630;BME280;36256;42.154;23.002;2024-01-11T03:51:53;98162.19;;;-4.33;95.54
36630;BME280;36256;42.154;23.002;2024-01-11T03:54:19;98167.69;;;-4.21;95.58
36630;BME280;36256;42.154;23.002;2024-01-11T03:56:46;98164.63;;;-4.20;95.24
36630;BME280;36256;42.154;23.002;2024-01-11T03:59:13;98165.44;;;-4.19;95.07
36630;BME280;36256;42.154;23.002;2024-01-11T04:01:41;98153.91;;;-4.13;94.16
36630;BME280;36256;42.154;23.002;2024-01-11T04:04:08;98153.47;;;-4.15;93.02
36630;BME280;36256;42.154;23.002;2024-01-11T04:06:35;98149.91;;;-4.15;92.30
36630;BME280;36256;42.154;23.002;2024-01-11T04:09:02;98162.03;;;-4.16;91.09
36630;BME280;36256;42.154;23.002;2024-01-11T04:11:29;98140.84;;;-4.28;90.99
36630;BME280;36256;42.154;23.002;2024-01-11T04:13:55;98161.06;;;-4.20;90.99
36630;BME280;36256;42.154;23.002;2024-01-11T04:16:25;98153.53;;;-4.23;89.88
36630;BME280;36256;42.154;23.002;2024-01-11T04:18:52;98153.53;;;-4.23;89.96
36630;BME280;36256;42.154;23.002;2024-01-11T04:21:25;98158.13;;;-4.15;93.74
36630;BME280;36256;42.154;23.002;2024-01-11T04:23:55;98161.31;;;-4.13;98.54
36630;BME280;36256;42.154;23.002;2024-01-11T04:26:22;98137.53;;;-4.33;98.24
36630;BME280;36256;42.154;23.002;2024-01-11T04:28:51;98158.00;;;-4.19;97.17
36630;BME280;36256;42.154;23.002;2024-01-11T04:31:18;98160.53;;;-4.14;95.93
36630;BME280;36256;42.154;23.002;2024-01-11T04:33:45;98154.25;;;-4.14;94.98
36630;BME280;36256;42.154;23.002;2024-01-11T04:36:12;98160.13;;;-4.24;96.13
36630;BME280;36256;42.154;23.002;2024-01-11T04:38:39;98160.84;;;-4.27;97.86
36630;BME280;36256;42.154;23.002;2024-01-11T04:41:12;98160.84;;;-4.27;97.34
36630;BME280;36256;42.154;23.002;2024-01-11T04:43:45;98147.75;;;-4.42;96.62
36630;BME280;36256;42.154;23.002;2024-01-11T04:46:13;98159.16;;;-4.40;96.18
36630;BME280;36256;42.154;23.002;2024-01-11T04:48:41;98160.72;;;-4.51;96.47
36630;BME280;36256;42.154;23.002;2024-01-11T04:51:11;98165.13;;;-4.59;97.21
36630;BME280;36256;42.154;23.002;2024-01-11T04:53:39;98160.47;;;-4.58;97.89
36630;BME280;36256;42.154;23.002;2024-01-11T04:56:07;98160.66;;;-4.63;95.93
36630;BME280;36256;42.154;23.002;2024-01-11T04:58:35;98150.59;;;-4.71;96.29
36630;BME280;36256;42.154;23.002;2024-01-11T05:01:02;98161.78;;;-4.64;97.30
36630;BME280;36256;42.154;23.002;2024-01-11T05:03:29;98157.25;;;-4.60;97.95
36630;BME280;36256;42.154;23.002;2024-01-11T05:05:59;98147.44;;;-4.61;98.91
36630;BME280;36256;42.154;23.002;2024-01-11T05:08:26;98152.44;;;-4.63;99.22
36630;BME280;36256;42.154;23.002;2024-01-11T05:10:54;98143.66;;;-4.69;97.21
36630;BME280;36256;42.154;23.002;2024-01-11T05:13:21;98146.50;;;-4.65;96.28
36630;BME280;36256;42.154;23.002;2024-01-11T05:15:48;98148.31;;;-4.69;97.13
36630;BME280;36256;42.154;23.002;2024-01-11T05:18:15;98142.69;;;-4.73;98.17
36630;BME280;36256;42.154;23.002;2024-01-11T05:20:42;98138.22;;;-4.78;98.26
36630;BME280;36256;42.154;23.002;2024-01-11T05:23:08;98143.91;;;-4.83;97.02
36630;BME280;36256;42.154;23.002;2024-01-11T05:25:35;98138.41;;;-4.83;96.60
36630;BME280;36256;42.154;23.002;2024-01-11T05:28:03;98133.34;;;-4.93;96.49
36630;BME280;36256;42.154;23.002;2024-01-11T05:30:30;98134.75;;;-4.87;96.98
36630;BME280;36256;42.154;23.002;2024-01-11T05:32:57;98139.06;;;-4.86;96.72
36630;BME280;36256;42.154;23.002;2024-01-11T05:35:27;98132.19;;;-4.92;95.27
36630;BME280;36256;42.154;23.002;2024-01-11T05:37:54;98134.47;;;-4.94;94.12
36630;BME280;36256;42.154;23.002;2024-01-11T05:40:21;98129.00;;;-4.94;92.60
36630;BME280;36256;42.154;23.002;2024-01-11T05:42:48;98135.63;;;-4.95;94.02
36630;BME280;36256;42.154;23.002;2024-01-11T05:45:15;98120.06;;;-5.03;94.26
36630;BME280;36256;42.154;23.002;2024-01-11T05:47:48;98131.94;;;-4.99;94.48
36630;BME280;36256;42.154;23.002;2024-01-11T05:50:14;98131.59;;;-4.97;95.17
36630;BME280;36256;42.154;23.002;2024-01-11T05:52:41;98137.22;;;-4.94;94.27
36630;BME280;36256;42.154;23.002;2024-01-11T05:55:08;98133.53;;;-4.98;93.07
36630;BME280;36256;42.154;23.002;2024-01-11T05:57:35;98131.72;;;-4.94;92.65
36630;BME280;36256;42.154;23.002;2024-01-11T06:00:02;98130.75;;;-4.89;91.52
36630;BME280;36256;42.154;23.002;2024-01-11T06:02:29;98135.22;;;-4.85;93.31
36630;BME280;36256;42.154;23.002;2024-01-11T06:04:59;98139.34;;;-4.79;97.81
36630;BME280;36256;42.154;23.002;2024-01-11T06:07:25;98110.13;;;-4.87;96.52
36630;BME280;36256;42.154;23.002;2024-01-11T06:09:53;98141.22;;;-4.70;96.98
36630;BME280;36256;42.154;23.002;2024-01-11T06:12:19;98137.06;;;-4.77;96.86
36630;BME280;36256;42.154;23.002;2024-01-11T06:14:46;98128.41;;;-4.79;94.79
36630;BME280;36256;42.154;23.002;2024-01-11T06:17:13;98132.81;;;-4.65;93.85
36630;BME280;36256;42.154;23.002;2024-01-11T06:19:46;98125.53;;;-4.61;93.88
36630;BME280;36256;42.154;23.002;2024-01-11T06:22:13;98126.41;;;-4.69;94.08
36630;BME280;36256;42.154;23.002;2024-01-11T06:24:39;98124.94;;;-4.67;94.84
36630;BME280;36256;42.154;23.002;2024-01-11T06:27:06;98120.03;;;-4.61;95.43
36630;BME280;36256;42.154;23.002;2024-01-11T06:29:33;98124.72;;;-4.62;95.84
36630;BME280;36256;42.154;23.002;2024-01-11T06:32:00;98103.41;;;-4.77;95.64
36630;BME280;36256;42.154;23.002;2024-01-11T06:34:26;98122.31;;;-4.63;95.31
36630;BME280;36256;42.154;23.002;2024-01-11T06:36:54;98122.78;;;-4.61;95.11
36630;BME280;36256;42.154;23.002;2024-01-11T06:39:21;98123.91;;;-4.62;95.67
36630;BME280;36256;42.154;23.002;2024-01-11T06:41:47;98111.94;;;-4.58;95.71
36630;BME280;36256;42.154;23.002;2024-01-11T06:44:14;98131.31;;;-4.42;95.23
36630;BME280;36256;42.154;23.002;2024-01-11T06:46:41;98134.13;;;-4.51;95.08
36630;BME280;36256;42.154;23.002;2024-01-11T06:49:08;98139.72;;;-4.47;96.52
36630;BME280;36256;42.154;23.002;2024-01-11T06:51:34;98136.31;;;-4.44;97.10
36630;BME280;36256;42.154;23.002;2024-01-11T06:54:01;98137.13;;;-4.44;97.50
36630;BME280;36256;42.154;23.002;2024-01-11T06:56:28;98137.72;;;-4.38;97.55
36630;BME280;36256;42.154;23.002;2024-01-11T06:58:55;98119.56;;;-4.43;97.40
36630;BME280;36256;42.154;23.002;2024-01-11T07:01:22;98136.38;;;-4.32;97.81
36630;BME280;36256;42.154;23.002;2024-01-11T07:03:49;98131.97;;;-4.25;98.47
36630;BME280;36256;42.154;23.002;2024-01-11T07:06:19;98135.16;;;-4.23;98.42
36630;BME280;36256;42.154;23.002;2024-01-11T07:08:46;98097.91;;;-4.36;97.54
36630;BME280;36256;42.154;23.002;2024-01-11T07:11:13;98118.19;;;-4.16;96.98
36630;BME280;36256;42.154;23.002;2024-01-11T07:13:39;98121.13;;;-4.21;97.72
36630;BME280;36256;42.154;23.002;2024-01-11T07:16:06;98111.34;;;-4.10;98.81
36630;BME280;36256;42.154;23.002;2024-01-11T07:18:32;98116.38;;;-4.00;98.61
36630;BME280;36256;42.154;23.002;2024-01-11T07:21:00;98095.13;;;-4.03;98.34
36630;BME280;36256;42.154;23.002;2024-01-11T07:23:27;98115.47;;;-3.80;96.74
36630;BME280;36256;42.154;23.002;2024-01-11T07:25:54;98118.81;;;-3.74;95.35
36630;BME280;36256;42.154;23.002;2024-01-11T07:28:20;98116.66;;;-3.69;95.39
36630;BME280;36256;42.154;23.002;2024-01-11T07:30:52;98110.94;;;-3.64;94.66
36630;BME280;36256;42.154;23.002;2024-01-11T07:33:22;98105.69;;;-3.57;94.38
36630;BME280;36256;42.154;23.002;2024-01-11T07:35:49;98103.06;;;-3.53;94.61
36630;BME280;36256;42.154;23.002;2024-01-11T07:38:16;98108.75;;;-3.46;93.66
36630;BME280;36256;42.154;23.002;2024-01-11T07:40:43;98106.38;;;-3.48;94.21
36630;BME280;36256;42.154;23.002;2024-01-11T07:43:09;98104.22;;;-3.42;94.24
36630;BME280;36256;42.154;23.002;2024-01-11T07:45:39;98109.09;;;-3.36;93.11
36630;BME280;36256;42.154;23.002;2024-01-11T07:48:06;98095.63;;;-3.41;93.95
36630;BME280;36256;42.154;23.002;2024-01-11T07:50:32;98103.63;;;-3.36;94.45
36630;BME280;36256;42.154;23.002;2024-01-11T07:52:59;98106.38;;;-3.24;95.92
36630;BME280;36256;42.154;23.002;2024-01-11T07:55:26;98100.84;;;-3.11;93.08
36630;BME280;36256;42.154;23.002;2024-01-11T07:57:53;98101.22;;;-3.13;93.03
36630;BME280;36256;42.154;23.002;2024-01-11T08:00:20;98091.91;;;-2.96;91.24
36630;BME280;36256;42.154;23.002;2024-01-11T08:02:46;98098.75;;;-2.90;94.17
36630;BME280;36256;42.154;23.002;2024-01-11T08:05:13;98087.88;;;-2.87;94.41
36630;BME280;36256;42.154;23.002;2024-01-11T08:07:40;98092.91;;;-2.77;95.26
36630;BME280;36256;42.154;23.002;2024-01-11T08:10:08;98098.25;;;-2.68;97.05
36630;BME280;36256;42.154;23.002;2024-01-11T08:12:36;98067.72;;;-2.79;96.23
36630;BME280;36256;42.154;23.002;2024-01-11T08:15:03;98089.88;;;-2.72;96.44
36630;BME280;36256;42.154;23.002;2024-01-11T08:17:33;98081.25;;;-2.86;96.44
36630;BME280;36256;42.154;23.002;2024-01-11T08:19:59;98075.47;;;-2.69;96.47
36630;BME280;36256;42.154;23.002;2024-01-11T08:22:26;98078.53;;;-2.70;96.69
36630;BME280;36256;42.154;23.002;2024-01-11T08:24:54;98081.28;;;-2.70;97.06
36630;BME280;36256;42.154;23.002;2024-01-11T08:27:22;98086.31;;;-2.60;97.11
36630;BME280;36256;42.154;23.002;2024-01-11T08:29:49;98090.31;;;-2.58;97.12
36630;BME280;36256;42.154;23.002;2024-01-11T08:32:16;98074.63;;;-2.57;96.70
36630;BME280;36256;42.154;23.002;2024-01-11T08:34:57;98067.31;;;-2.65;96.51
36630;BME280;36256;42.154;23.002;2024-01-11T08:37:24;98075.91;;;-2.67;97.34
36630;BME280;36256;42.154;23.002;2024-01-11T08:39:51;98067.53;;;-2.58;98.35
36630;BME280;36256;42.154;23.002;2024-01-11T08:42:18;98070.00;;;-2.53;98.76
36630;BME280;36256;42.154;23.002;2024-01-11T08:44:44;98063.31;;;-2.40;99.35
36630;BME280;36256;42.154;23.002;2024-01-11T08:47:11;98052.66;;;-2.14;99.92
36630;BME280;36256;42.154;23.002;2024-01-11T08:49:39;98057.38;;;-1.99;97.79
36630;BME280;36256;42.154;23.002;2024-01-11T08:52:07;98045.09;;;-1.86;97.41
36630;BME280;36256;42.154;23.002;2024-01-11T08:54:34;98044.16;;;-1.78;96.50
36630;BME280;36256;42.154;23.002;2024-01-11T08:57:01;98034.91;;;-1.85;92.70
36630;BME280;36256;42.154;23.002;2024-01-11T08:59:28;98038.53;;;-1.81;94.41
36630;BME280;36256;42.154;23.002;2024-01-11T09:01:54;98034.91;;;-1.70;97.30
36630;BME280;36256;42.154;23.002;2024-01-11T09:04:36;98014.59;;;-1.30;95.21
36630;BME280;36256;42.154;23.002;2024-01-11T09:07:03;98031.16;;;1.08;86.63
36630;BME280;36256;42.154;23.002;2024-01-11T09:09:30;98003.44;;;4.48;66.42
36630;BME280;36256;42.154;23.002;2024-01-11T09:11:59;97962.56;;;6.40;56.13
36630;BME280;36256;42.154;23.002;2024-01-11T09:14:26;97958.88;;;7.91;48.91
36630;BME280;36256;42.154;23.002;2024-01-11T09:16:56;97999.13;;;8.28;46.97
36630;BME280;36256;42.154;23.002;2024-01-11T09:19:23;97981.59;;;9.39;45.14
36630;BME280;36256;42.154;23.002;2024-01-11T09:21:50;97974.75;;;9.40;43.78
36630;BME280;36256;42.154;23.002;2024-01-11T09:24:17;97973.06;;;9.04;44.69
36630;BME280;36256;42.154;23.002;2024-01-11T09:26:43;97969.13;;;8.55;43.89
36630;BME280;36256;42.154;23.002;2024-01-11T09:29:10;97965.09;;;8.03;44.95
36630;BME280;36256;42.154;23.002;2024-01-11T09:31:37;97954.41;;;7.67;45.37
36630;BME280;36256;42.154;23.002;2024-01-11T09:34:04;97955.38;;;6.83;47.42
36630;BME280;36256;42.154;23.002;2024-01-11T09:36:31;97952.69;;;5.55;50.42
36630;BME280;36256;42.154;23.002;2024-01-11T09:38:57;97940.72;;;4.33;55.48
36630;BME280;36256;42.154;23.002;2024-01-11T09:41:25;97939.06;;;3.72;55.49
36630;BME280;36256;42.154;23.002;2024-01-11T09:43:54;97931.34;;;2.41;59.08
36630;BME280;36256;42.154;23.002;2024-01-11T09:46:22;97948.50;;;2.57;61.21
36630;BME280;36256;42.154;23.002;2024-01-11T09:48:50;97949.66;;;2.56;61.43
36630;BME280;36256;42.154;23.002;2024-01-11T09:51:18;97942.31;;;2.23;60.78
36630;BME280;36256;42.154;23.002;2024-01-11T09:53:50;97940.69;;;2.19;61.50
36630;BME280;36256;42.154;23.002;2024-01-11T09:56:18;97936.44;;;2.32;62.26
36630;BME280;36256;42.154;23.002;2024-01-11T09:58:47;97931.25;;;2.23;61.53
36630;BME280;36256;42.154;23.002;2024-01-11T10:01:16;97929.63;;;2.19;60.63
36630;BME280;36256;42.154;23.002;2024-01-11T10:03:46;97927.41;;;2.42;63.17
36630;BME280;36256;42.154;23.002;2024-01-11T10:06:13;97918.91;;;2.72;64.37
36630;BME280;36256;42.154;23.002;2024-01-11T10:08:40;97925.25;;;2.76;60.47
36630;BME280;36256;42.154;23.002;2024-01-11T10:11:07;97909.66;;;2.50;60.50
36630;BME280;36256;42.154;23.002;2024-01-11T10:13:35;97913.25;;;2.54;62.56
36630;BME280;36256;42.154;23.002;2024-01-11T10:16:10;97902.16;;;2.54;62.28
36630;BME280;36256;42.154;23.002;2024-01-11T10:18:40;97900.25;;;2.65;61.09
36630;BME280;36256;42.154;23.002;2024-01-11T10:21:07;97893.19;;;2.78;60.91
36630;BME280;36256;42.154;23.002;2024-01-11T10:23:36;97891.28;;;2.96;59.34
36630;BME280;36256;42.154;23.002;2024-01-11T10:26:04;97870.38;;;3.16;59.27
36630;BME280;36256;42.154;23.002;2024-01-11T10:28:31;97866.03;;;3.26;58.70
36630;BME280;36256;42.154;23.002;2024-01-11T10:30:58;97858.81;;;3.00;58.95
36630;BME280;36256;42.154;23.002;2024-01-11T10:33:25;97861.91;;;2.78;59.50
36630;BME280;36256;42.154;23.002;2024-01-11T10:35:52;97863.53;;;2.82;60.77
36630;BME280;36256;42.154;23.002;2024-01-11T10:38:21;97850.13;;;3.05;61.12
36630;BME280;36256;42.154;23.002;2024-01-11T10:40:49;97841.84;;;3.16;59.61
36630;BME280;36256;42.154;23.002;2024-01-11T10:43:19;97829.56;;;3.13;60.10
36630;BME280;36256;42.154;23.002;2024-01-11T10:45:51;97820.03;;;3.07;60.56
36630;BME280;36256;42.154;23.002;2024-01-11T10:48:25;97817.69;;;3.16;60.09
36630;BME280;36256;42.154;23.002;2024-01-11T10:50:59;97815.34;;;3.29;59.29
36630;BME280;36256;42.154;23.002;2024-01-11T10:53:44;97804.25;;;3.36;60.46
36630;BME280;36256;42.154;23.002;2024-01-11T10:56:14;97800.28;;;3.41;60.49
36630;BME280;36256;42.154;23.002;2024-01-11T10:58:47;97788.00;;;3.49;60.69
36630;BME280;36256;42.154;23.002;2024-01-11T11:01:18;97771.75;;;3.68;58.90
36630;BME280;36256;42.154;23.002;2024-01-11T11:03:48;97785.22;;;3.80;58.47
36630;BME280;36256;42.154;23.002;2024-01-11T11:06:18;97760.63;;;3.93;58.75
36630;BME280;36256;42.154;23.002;2024-01-11T11:08:46;97773.69;;;4.17;57.89
36630;BME280;36256;42.154;23.002;2024-01-11T11:11:14;97759.81;;;4.03;58.37
36630;BME280;36256;42.154;23.002;2024-01-11T11:13:42;97743.50;;;4.19;59.55
36630;BME280;36256;42.154;23.002;2024-01-11T11:16:09;97748.59;;;4.38;57.50
36630;BME280;36256;42.154;23.002;2024-01-11T11:18:36;97734.72;;;4.38;56.75
36630;BME280;36256;42.154;23.002;2024-01-11T11:21:11;97727.13;;;4.49;58.85
36630;BME280;36256;42.154;23.002;2024-01-11T11:23:40;97724.75;;;4.48;58.70
36630;BME280;36256;42.154;23.002;2024-01-11T11:26:07;97721.19;;;4.47;57.87
36630;BME280;36256;42.154;23.002;2024-01-11T11:28:40;97708.47;;;4.53;59.72
36630;BME280;36256;42.154;23.002;2024-01-11T11:31:07;97702.44;;;4.65;58.10
36630;BME280;36256;42.154;23.002;2024-01-11T11:33:34;97690.50;;;4.65;55.87
36630;BME280;36256;42.154;23.002;2024-01-11T11:36:01;97688.81;;;4.82;55.68
36630;BME280;36256;42.154;23.002;2024-01-11T11:38:31;97669.78;;;4.80;55.05
36630;BME280;36256;42.154;23.002;2024-01-11T11:40:59;97664.59;;;4.82;55.50
36630;BME280;36256;42.154;23.002;2024-01-11T11:43:27;97664.97;;;4.88;55.58
36630;BME280;36256;42.154;23.002;2024-01-11T11:45:54;97657.00;;;4.90;54.89
36630;BME280;36256;42.154;23.002;2024-01-11T11:51:14;97640.97;;;5.08;55.70
36630;BME280;36256;42.154;23.002;2024-01-11T11:53:47;97641.75;;;5.12;55.58
36630;BME280;36256;42.154;23.002;2024-01-11T11:56:17;97631.47;;;5.05;54.19
36630;BME280;36256;42.154;23.002;2024-01-11T11:58:45;97619.47;;;5.12;53.19
36630;BME280;36256;42.154;23.002;2024-01-11T12:01:14;97616.69;;;5.12;53.97
36630;BME280;36256;42.154;23.002;2024-01-11T12:03:42;97612.25;;;5.21;55.43
36630;BME280;36256;42.154;23.002;2024-01-11T12:06:16;97606.88;;;5.41;54.89
36630;BME280;36256;42.154;23.002;2024-01-11T12:08:44;97599.34;;;5.41;53.43
36630;BME280;36256;42.154;23.002;2024-01-11T12:11:17;97596.06;;;5.50;54.81
36630;BME280;36256;42.154;23.002;2024-01-11T12:13:44;97600.72;;;5.60;53.28
36630;BME280;36256;42.154;23.002;2024-01-11T12:16:12;97576.03;;;5.66;52.46
36630;BME280;36256;42.154;23.002;2024-01-11T12:18:39;97582.25;;;5.77;52.04
36630;BME280;36256;42.154;23.002;2024-01-11T12:21:07;97570.47;;;5.62;52.21
36630;BME280;36256;42.154;23.002;2024-01-11T12:23:34;97567.56;;;5.76;52.83
36630;BME280;36256;42.154;23.002;2024-01-11T12:26:02;97555.16;;;5.84;52.63
36630;BME280;36256;42.154;23.002;2024-01-11T12:28:32;97560.38;;;6.12;53.01
36630;BME280;36256;42.154;23.002;2024-01-11T12:30:59;97553.84;;;6.22;54.34
36630;BME280;36256;42.154;23.002;2024-01-11T12:33:26;97548.09;;;6.06;53.76
36630;BME280;36256;42.154;23.002;2024-01-11T12:35:54;97545.41;;;5.99;54.35
36630;BME280;36256;42.154;23.002;2024-01-11T12:38:21;97534.16;;;6.06;53.76
36630;BME280;36256;42.154;23.002;2024-01-11T12:40:48;97553.94;;;6.15;53.53
36630;BME280;36256;42.154;23.002;2024-01-11T12:43:15;97544.13;;;6.34;52.73
36630;BME280;36256;42.154;23.002;2024-01-11T12:45:42;97543.22;;;6.41;52.50
36630;BME280;36256;42.154;23.002;2024-01-11T12:48:09;97544.81;;;6.42;52.32
36630;BME280;36256;42.154;23.002;2024-01-11T12:50:36;97540.94;;;6.36;53.12
36630;BME280;36256;42.154;23.002;2024-01-11T12:53:08;97537.66;;;6.41;54.17
36630;BME280;36256;42.154;23.002;2024-01-11T12:55:35;97514.72;;;6.29;52.99
36630;BME280;36256;42.154;23.002;2024-01-11T12:58:20;97528.81;;;6.46;53.34